Clintonia Township, Illinois
Current Conditions -  °F | °C
As of 4:55 AM on Monday 20 Oct 2014 (Local Time) from KAAA Reporting Station
Clear Clear  
Wind Chill: 54°   Ceiling: Unl
Heat Index: 54°   Visibility: 10mi
Dew Point: 47°   Wind: 7mph
Humidity: 79%   Direction: 210°SSW
Pressure: 29.88"   Gusts: NA
Location:  40.143°N, 88.9637°W
Report Text: KAAA 200955Z AUTO 21006KT 10SM CLR 12/09 A2988 RMK AO2 T01200085
Loading
Personal Weather Stations






























Interactive Weather Map
Tropical Storm Tracking
New forecast layout! Learn more

10-Day Weather Forecast

Advertisements
Track Severe Weather on mobile